createdAt,value
2018-09-05T00:01:56.459Z,15.95
2018-09-05T00:04:24.851Z,15.80
2018-09-05T00:06:52.948Z,15.62
2018-09-05T00:09:21.032Z,15.60
2018-09-05T00:11:49.118Z,15.73
2018-09-05T00:14:17.234Z,15.83
2018-09-05T00:16:45.309Z,15.88
2018-09-05T00:19:13.395Z,15.95
2018-09-05T00:21:41.511Z,16.02
2018-09-05T00:24:09.619Z,16.04
2018-09-05T00:26:37.731Z,16.10
2018-09-05T00:29:05.840Z,16.02
2018-09-05T00:31:33.955Z,15.92
2018-09-05T00:34:02.070Z,15.94
2018-09-05T00:36:30.104Z,15.86
2018-09-05T00:38:58.181Z,15.80
2018-09-05T00:41:26.233Z,15.71
2018-09-05T00:43:54.318Z,15.57
2018-09-05T00:46:22.387Z,15.61
2018-09-05T00:48:50.451Z,15.64
2018-09-05T00:51:18.531Z,15.57
2018-09-05T00:53:46.605Z,15.48
2018-09-05T00:56:14.668Z,15.28
2018-09-05T00:58:42.742Z,15.25
2018-09-05T01:01:10.802Z,15.23
2018-09-05T01:03:38.902Z,15.24
2018-09-05T01:06:06.966Z,15.20
2018-09-05T01:08:35.061Z,15.19
2018-09-05T01:11:03.131Z,15.15
2018-09-05T01:13:31.202Z,15.13
2018-09-05T01:15:59.287Z,15.09
2018-09-05T01:18:27.370Z,15.07
2018-09-05T01:20:55.432Z,15.05
2018-09-05T01:23:23.527Z,15.05
2018-09-05T01:25:51.591Z,15.05
2018-09-05T01:28:19.750Z,15.08
2018-09-05T01:30:47.821Z,15.14
2018-09-05T01:33:15.915Z,15.10
2018-09-05T01:35:43.971Z,15.09
2018-09-05T01:38:12.059Z,14.97
2018-09-05T01:40:40.182Z,15.01
2018-09-05T01:43:08.253Z,15.02
2018-09-05T01:45:36.454Z,14.91
2018-09-05T01:48:04.582Z,14.81
2018-09-05T01:50:44.246Z,14.78
2018-09-05T01:53:12.894Z,14.78
2018-09-05T01:55:40.978Z,14.75
2018-09-05T01:58:09.103Z,14.79
2018-09-05T02:00:37.201Z,14.79
2018-09-05T02:03:05.692Z,14.79
2018-09-05T02:05:33.803Z,14.84
2018-09-05T02:08:02.953Z,14.91
2018-09-05T02:10:31.640Z,15.11
2018-09-05T02:12:59.949Z,15.10
2018-09-05T02:15:28.027Z,14.95
2018-09-05T02:17:56.151Z,14.73
2018-09-05T02:20:24.224Z,14.67
2018-09-05T02:22:52.324Z,14.65
2018-09-05T02:25:20.405Z,14.71
2018-09-05T02:27:48.485Z,14.73
2018-09-05T02:30:16.574Z,14.63
2018-09-05T02:32:44.656Z,14.52
2018-09-05T02:35:12.774Z,14.52
2018-09-05T02:37:40.923Z,14.45
2018-09-05T02:40:09.345Z,14.41
2018-09-05T02:42:37.559Z,14.39
2018-09-05T02:45:05.705Z,14.37
2018-09-05T02:47:33.841Z,14.40
2018-09-05T02:50:01.934Z,14.31
2018-09-05T02:52:30.009Z,14.23
2018-09-05T02:54:58.110Z,14.21
2018-09-05T02:57:26.248Z,14.16
2018-09-05T02:59:54.351Z,14.12
2018-09-05T03:02:22.431Z,14.10
2018-09-05T03:04:50.520Z,14.02
2018-09-05T03:07:18.629Z,14.06
2018-09-05T03:09:46.724Z,14.01
2018-09-05T03:12:19.374Z,13.95
2018-09-05T03:14:47.602Z,13.90
2018-09-05T03:17:15.696Z,13.90
2018-09-05T03:19:43.783Z,13.87
2018-09-05T03:22:11.988Z,13.85
2018-09-05T03:24:40.126Z,13.81
2018-09-05T03:27:08.281Z,13.86
2018-09-05T03:29:36.385Z,13.99
2018-09-05T03:32:04.524Z,13.96
2018-09-05T03:34:32.646Z,13.91
2018-09-05T03:37:00.771Z,13.85
2018-09-05T03:39:28.873Z,13.76
2018-09-05T03:41:56.958Z,13.75
2018-09-05T03:44:25.054Z,13.74
2018-09-05T03:46:53.151Z,13.76
2018-09-05T03:49:21.231Z,13.76
2018-09-05T03:51:49.340Z,13.73
2018-09-05T03:54:17.423Z,13.69
2018-09-05T03:56:45.627Z,13.72
2018-09-05T03:59:13.721Z,13.74
2018-09-05T04:01:41.815Z,13.69
2018-09-05T04:04:09.903Z,13.64
2018-09-05T04:06:38.004Z,13.61
2018-09-05T04:09:08.032Z,13.57
2018-09-05T04:11:36.795Z,13.62
2018-09-05T04:14:04.910Z,13.54
2018-09-05T04:16:33.072Z,13.51
2018-09-05T04:19:01.141Z,13.54
2018-09-05T04:21:29.248Z,13.68
2018-09-05T04:23:57.398Z,13.79
2018-09-05T04:26:25.490Z,13.88
2018-09-05T04:28:53.591Z,13.88
2018-09-05T04:31:21.758Z,13.76
2018-09-05T04:33:49.846Z,13.67
2018-09-05T04:36:17.957Z,13.54
2018-09-05T04:38:46.061Z,13.40
2018-09-05T04:41:15.202Z,13.36
2018-09-05T04:43:43.291Z,13.30
2018-09-05T04:46:11.377Z,13.32
2018-09-05T04:48:39.471Z,13.30
2018-09-05T04:51:07.778Z,13.33
2018-09-05T04:53:35.880Z,13.37
2018-09-05T04:56:03.966Z,13.35
2018-09-05T04:58:32.091Z,13.32
2018-09-05T05:01:00.168Z,13.34
2018-09-05T05:03:28.384Z,13.31
2018-09-05T05:05:56.580Z,13.29
2018-09-05T05:08:24.615Z,13.39
2018-09-05T05:10:52.823Z,13.50
2018-09-05T05:13:20.984Z,13.54
2018-09-05T05:15:49.168Z,13.58
2018-09-05T05:18:17.351Z,13.63
2018-09-05T05:20:45.457Z,13.80
2018-09-05T05:23:13.547Z,13.89
2018-09-05T05:25:41.638Z,14.05
2018-09-05T05:28:09.715Z,14.05
2018-09-05T05:30:37.799Z,14.12
2018-09-05T05:33:05.947Z,14.17
2018-09-05T05:35:34.028Z,14.19
2018-09-05T05:38:02.143Z,14.26
2018-09-05T05:40:30.210Z,14.30
2018-09-05T05:42:58.364Z,14.39
2018-09-05T05:45:26.439Z,14.52
2018-09-05T05:47:54.671Z,14.59
2018-09-05T05:50:22.718Z,14.61
2018-09-05T05:52:50.795Z,14.55
2018-09-05T05:55:18.859Z,14.65
2018-09-05T05:57:46.929Z,14.82
2018-09-05T06:00:15.055Z,14.95
2018-09-05T06:02:43.155Z,15.06
2018-09-05T06:05:11.245Z,15.33
2018-09-05T06:07:39.375Z,15.55
2018-09-05T06:10:07.445Z,15.76
2018-09-05T06:12:35.663Z,15.93
2018-09-05T06:15:03.770Z,16.02
2018-09-05T06:17:31.901Z,16.11
2018-09-05T06:19:59.995Z,16.19
2018-09-05T06:22:28.060Z,16.27
2018-09-05T06:24:56.149Z,16.32
2018-09-05T06:27:24.281Z,16.44
2018-09-05T06:29:52.362Z,16.48
2018-09-05T06:32:20.429Z,16.25
2018-09-05T06:34:48.505Z,16.00
2018-09-05T06:37:16.576Z,16.02
2018-09-05T06:39:44.660Z,16.02
2018-09-05T06:42:12.747Z,16.15
2018-09-05T06:44:40.830Z,16.42
2018-09-05T06:47:08.974Z,16.65
2018-09-05T06:49:37.048Z,16.97
2018-09-05T06:52:05.112Z,17.21
2018-09-05T06:54:33.187Z,17.45
2018-09-05T06:57:01.256Z,17.65
2018-09-05T06:59:29.452Z,17.76
2018-09-05T07:01:57.638Z,17.78
2018-09-05T07:04:25.703Z,17.80
2018-09-05T07:06:53.792Z,17.76
2018-09-05T07:09:21.990Z,17.86
2018-09-05T07:11:50.115Z,18.00
2018-09-05T07:14:18.244Z,18.01
2018-09-05T07:16:46.258Z,18.00
2018-09-05T07:19:14.348Z,17.93
2018-09-05T07:21:42.419Z,17.63
2018-09-05T07:24:10.495Z,17.92
2018-09-05T07:26:38.558Z,18.28
2018-09-05T07:29:06.675Z,18.23
2018-09-05T07:31:34.777Z,18.22
2018-09-05T07:34:02.848Z,18.43
2018-09-05T07:36:30.920Z,18.72
2018-09-05T07:38:59.349Z,18.86
2018-09-05T07:41:27.365Z,18.98
2018-09-05T07:43:55.439Z,18.71
2018-09-05T07:46:23.520Z,18.79
2018-09-05T07:48:51.631Z,18.98
2018-09-05T07:51:20.270Z,19.31
2018-09-05T07:53:48.330Z,19.62
2018-09-05T07:56:16.462Z,19.87
2018-09-05T07:58:44.524Z,20.08
2018-09-05T08:01:12.595Z,20.26
2018-09-05T08:03:40.663Z,20.35
2018-09-05T08:06:08.743Z,20.51
2018-09-05T08:08:36.823Z,20.57
2018-09-05T08:11:04.917Z,20.67
2018-09-05T08:13:32.980Z,20.70
2018-09-05T08:16:01.072Z,20.78
2018-09-05T08:18:29.142Z,21.00
2018-09-05T08:20:57.321Z,21.03
2018-09-05T08:23:25.394Z,20.90
2018-09-05T08:25:54.293Z,21.20
2018-09-05T08:28:22.368Z,21.29
2018-09-05T08:30:50.475Z,21.39
2018-09-05T08:33:18.750Z,21.29
2018-09-05T08:35:47.072Z,21.25
2018-09-05T08:38:15.073Z,21.32
2018-09-05T08:40:43.238Z,21.38
2018-09-05T08:43:11.335Z,21.52
2018-09-05T08:45:39.630Z,21.46
2018-09-05T08:48:07.550Z,21.59
2018-09-05T08:50:36.512Z,21.95
2018-09-05T08:53:04.574Z,21.85
2018-09-05T08:55:32.655Z,21.84
2018-09-05T08:58:00.792Z,21.85
2018-09-05T09:00:28.903Z,21.96
2018-09-05T09:02:57.020Z,22.29
2018-09-05T09:05:25.403Z,22.32
2018-09-05T09:07:53.498Z,22.48
2018-09-05T09:10:21.613Z,22.35
2018-09-05T09:12:49.683Z,22.66
2018-09-05T09:15:17.790Z,22.73
2018-09-05T09:17:46.016Z,22.62
2018-09-05T09:20:14.137Z,22.76
2018-09-05T09:22:42.245Z,22.87
2018-09-05T09:25:10.342Z,22.78
2018-09-05T09:27:38.474Z,22.77
2018-09-05T09:30:06.703Z,22.87
2018-09-05T09:32:34.799Z,22.92
2018-09-05T09:35:02.884Z,23.19
2018-09-05T09:37:31.146Z,23.63
2018-09-05T09:39:59.256Z,23.95
2018-09-05T09:42:27.373Z,23.75
2018-09-05T09:44:56.502Z,23.60
2018-09-05T09:47:24.589Z,23.57
2018-09-05T09:49:52.678Z,23.32
2018-09-05T09:52:21.964Z,23.30
2018-09-05T09:54:51.468Z,23.48
2018-09-05T09:57:19.646Z,23.75
2018-09-05T09:59:47.723Z,23.77
2018-09-05T10:02:21.226Z,23.75
2018-09-05T10:04:54.682Z,23.82
2018-09-05T10:07:28.025Z,23.75
2018-09-05T10:10:02.479Z,24.06
2018-09-05T10:12:35.943Z,24.07
2018-09-05T10:15:09.437Z,24.17
2018-09-05T10:17:38.512Z,24.15
2018-09-05T10:20:06.646Z,24.12
2018-09-05T10:22:34.744Z,24.11
2018-09-05T10:25:02.942Z,24.43
2018-09-05T10:27:31.031Z,24.52
2018-09-05T10:29:59.124Z,24.61
2018-09-05T10:32:27.705Z,24.45
2018-09-05T10:34:56.803Z,24.41
2018-09-05T10:37:25.114Z,24.55
2018-09-05T10:39:53.302Z,24.63
2018-09-05T10:42:21.413Z,24.80
2018-09-05T10:44:49.519Z,24.77
2018-09-05T10:47:17.612Z,25.02
2018-09-05T10:49:45.719Z,24.89
2018-09-05T10:52:13.822Z,24.94
2018-09-05T10:54:41.924Z,24.81
2018-09-05T10:57:10.055Z,25.22
2018-09-05T10:59:38.133Z,25.42
2018-09-05T11:02:06.398Z,25.23
2018-09-05T11:04:34.554Z,25.43
2018-09-05T11:07:02.640Z,25.61
2018-09-05T11:09:30.814Z,25.28
2018-09-05T11:11:58.994Z,25.26
2018-09-05T11:14:27.075Z,25.63
2018-09-05T11:16:55.216Z,26.06
2018-09-05T11:19:23.360Z,25.91
2018-09-05T11:21:51.467Z,25.82
2018-09-05T11:24:19.568Z,25.81
2018-09-05T11:26:47.671Z,25.72
2018-09-05T11:29:15.791Z,25.82
2018-09-05T11:31:43.951Z,25.63
2018-09-05T11:34:12.055Z,25.54
2018-09-05T11:36:40.272Z,25.62
2018-09-05T11:39:09.880Z,25.79
2018-09-05T11:41:37.966Z,25.75
2018-09-05T11:44:06.522Z,25.86
2018-09-05T11:46:34.673Z,25.91
2018-09-05T11:49:02.792Z,26.07
2018-09-05T11:51:30.959Z,26.26
2018-09-05T11:58:56.005Z,26.65
2018-09-05T12:01:24.850Z,26.27
2018-09-05T12:03:53.072Z,26.20
2018-09-05T12:06:21.176Z,26.35
2018-09-05T12:08:49.290Z,26.76
2018-09-05T12:11:17.389Z,26.83
2018-09-05T12:13:45.484Z,27.03
2018-09-05T12:16:13.591Z,27.12
2018-09-05T12:18:41.811Z,27.21
2018-09-05T12:21:09.910Z,27.09
2018-09-05T12:23:38.015Z,26.61
2018-09-05T12:26:06.114Z,26.65
2018-09-05T12:28:34.185Z,27.03
2018-09-05T12:31:02.267Z,27.05
2018-09-05T12:33:31.414Z,27.12
2018-09-05T12:35:59.523Z,26.65
2018-09-05T12:38:27.595Z,26.76
2018-09-05T12:40:55.695Z,26.79
2018-09-05T12:43:24.011Z,26.90
2018-09-05T12:45:52.096Z,27.21
2018-09-05T12:48:20.191Z,27.80
2018-09-05T12:50:48.291Z,27.80
2018-09-05T12:53:16.389Z,28.10
2018-09-05T12:55:44.514Z,28.27
2018-09-05T12:58:12.616Z,28.11
2018-09-05T13:00:40.713Z,28.41
2018-09-05T13:03:08.832Z,28.09
2018-09-05T13:05:37.079Z,27.92
2018-09-05T13:08:05.042Z,27.80
2018-09-05T13:10:33.510Z,28.42
2018-09-05T13:13:01.718Z,28.68
2018-09-05T13:15:29.816Z,28.85
2018-09-05T13:17:57.903Z,27.76
2018-09-05T13:20:26.121Z,28.09
2018-09-05T13:22:54.277Z,27.92
2018-09-05T13:25:22.306Z,27.36
2018-09-05T13:27:50.647Z,27.55
2018-09-05T13:30:18.733Z,27.10
2018-09-05T13:32:46.878Z,26.86
2018-09-05T13:35:14.955Z,26.58
2018-09-05T13:37:43.038Z,26.30
2018-09-05T13:40:11.198Z,26.41
2018-09-05T13:42:39.274Z,26.39
2018-09-05T13:45:07.453Z,26.60
2018-09-05T13:47:35.540Z,26.79
2018-09-05T13:50:03.797Z,27.11
2018-09-05T13:52:31.898Z,27.39
2018-09-05T13:55:00.020Z,27.55
2018-09-05T13:57:28.105Z,27.76
2018-09-05T13:59:56.175Z,27.93
2018-09-05T14:02:24.415Z,28.17
2018-09-05T14:04:52.441Z,27.70
2018-09-05T14:07:20.524Z,27.82
2018-09-05T14:09:48.595Z,27.78
2018-09-05T14:12:16.678Z,27.81
2018-09-05T14:14:44.763Z,28.36
2018-09-05T14:17:12.943Z,28.54
2018-09-05T14:19:41.026Z,28.37
2018-09-05T14:22:09.098Z,28.29
2018-09-05T14:24:37.271Z,28.26
2018-09-05T14:27:05.351Z,28.23
2018-09-05T14:29:33.429Z,28.63
2018-09-05T14:32:01.510Z,28.85
2018-09-05T14:34:29.596Z,28.91
2018-09-05T14:36:57.671Z,29.05
2018-09-05T14:39:25.890Z,28.94
2018-09-05T14:41:54.222Z,29.36
2018-09-05T14:44:22.328Z,29.26
2018-09-05T14:46:50.404Z,29.33
2018-09-05T14:49:18.468Z,29.47
2018-09-05T14:51:46.546Z,29.59
2018-09-05T14:54:14.623Z,29.44
2018-09-05T14:56:42.677Z,29.23
2018-09-05T14:59:10.776Z,29.31
2018-09-05T15:01:38.835Z,29.60
2018-09-05T15:04:06.907Z,29.62
2018-09-05T15:06:35.066Z,29.40
2018-09-05T15:09:03.156Z,28.49
2018-09-05T15:11:31.268Z,28.31
2018-09-05T15:13:59.419Z,27.82
2018-09-05T15:16:27.470Z,27.53
2018-09-05T15:18:55.554Z,27.26
2018-09-05T15:21:23.633Z,27.14
2018-09-05T15:23:51.797Z,27.20
2018-09-05T15:26:19.881Z,27.07
2018-09-05T15:28:48.003Z,26.90
2018-09-05T15:31:16.022Z,27.08
2018-09-05T15:33:44.091Z,26.92
2018-09-05T15:36:12.182Z,27.08
2018-09-05T15:38:40.258Z,27.01
2018-09-05T15:41:08.330Z,27.14
2018-09-05T15:43:36.399Z,27.32
2018-09-05T15:46:04.487Z,27.39
2018-09-05T15:48:32.557Z,27.55
2018-09-05T15:51:00.663Z,27.38
2018-09-05T15:53:28.735Z,27.15
2018-09-05T15:55:56.811Z,27.03
2018-09-05T15:58:24.948Z,27.01
2018-09-05T16:00:53.034Z,27.02
2018-09-05T16:03:21.140Z,27.14
2018-09-05T16:05:49.914Z,27.05
2018-09-05T16:08:17.941Z,27.12
2018-09-05T16:10:46.027Z,27.29
2018-09-05T16:13:14.104Z,27.26
2018-09-05T16:15:42.359Z,27.32
2018-09-05T16:18:10.265Z,27.43
2018-09-05T16:20:38.356Z,27.50
2018-09-05T16:23:06.765Z,27.37
2018-09-05T16:25:34.837Z,27.30
2018-09-05T16:28:02.907Z,27.33
2018-09-05T16:30:30.981Z,27.28
2018-09-05T16:32:59.130Z,27.11
2018-09-05T16:35:27.357Z,27.06
2018-09-05T16:37:55.351Z,27.15
2018-09-05T16:40:23.422Z,27.18
2018-09-05T16:42:51.492Z,27.14
2018-09-05T16:45:19.567Z,27.13
2018-09-05T16:47:47.739Z,27.15
2018-09-05T16:50:15.807Z,27.14
2018-09-05T16:52:43.886Z,27.07
2018-09-05T16:55:11.946Z,26.91
2018-09-05T16:57:40.983Z,26.85
2018-09-05T17:00:09.069Z,26.75
2018-09-05T17:02:37.142Z,26.75
2018-09-05T17:05:05.306Z,26.74
2018-09-05T17:07:33.427Z,26.84
2018-09-05T17:10:01.558Z,26.95
2018-09-05T17:12:29.766Z,26.86
2018-09-05T17:14:57.854Z,26.94
2018-09-05T17:17:26.049Z,26.86
2018-09-05T17:19:54.129Z,26.90
2018-09-05T17:22:22.639Z,26.88
2018-09-05T17:24:50.806Z,26.61
2018-09-05T17:27:18.978Z,26.24
2018-09-05T17:29:47.039Z,25.74
2018-09-05T17:32:15.137Z,25.37
2018-09-05T17:34:43.198Z,24.95
2018-09-05T17:37:11.292Z,24.72
2018-09-05T17:39:39.367Z,24.70
2018-09-05T17:42:07.459Z,24.71
2018-09-05T17:44:35.843Z,24.67
2018-09-05T17:47:03.934Z,24.58
2018-09-05T17:49:32.002Z,24.55
2018-09-05T17:52:00.099Z,24.49
2018-09-05T17:54:32.544Z,24.52
2018-09-05T17:57:00.774Z,24.44
2018-09-05T17:59:28.850Z,24.40
2018-09-05T18:02:02.124Z,24.29
2018-09-05T18:04:30.222Z,24.14
2018-09-05T18:06:58.365Z,24.08
2018-09-05T18:09:28.721Z,24.11
2018-09-05T18:11:56.800Z,24.02
2018-09-05T18:14:26.511Z,23.95
2018-09-05T18:16:55.537Z,23.85
2018-09-05T18:19:24.738Z,23.59
2018-09-05T18:21:52.839Z,23.52
2018-09-05T18:24:20.958Z,23.41
2018-09-05T18:26:49.026Z,23.32
2018-09-05T18:29:17.148Z,23.27
2018-09-05T18:31:45.203Z,23.24
2018-09-05T18:34:13.286Z,23.19
2018-09-05T18:36:41.411Z,23.10
2018-09-05T18:39:10.003Z,23.00
2018-09-05T18:41:38.476Z,22.93
2018-09-05T18:44:06.576Z,22.87
2018-09-05T18:46:34.662Z,22.82
2018-09-05T18:49:02.819Z,22.69
2018-09-05T18:51:30.974Z,22.53
2018-09-05T18:53:59.089Z,22.43
2018-09-05T18:56:27.762Z,22.27
2018-09-05T18:58:55.862Z,22.17
2018-09-05T19:01:23.970Z,22.09
2018-09-05T19:03:52.074Z,22.10
2018-09-05T19:06:20.155Z,22.02
2018-09-05T19:08:48.249Z,22.01
2018-09-05T19:11:16.731Z,22.02
2018-09-05T19:13:44.879Z,21.97
2018-09-05T19:16:12.979Z,21.94
2018-09-05T19:18:41.054Z,21.91
2018-09-05T19:21:09.174Z,21.71
2018-09-05T19:23:37.294Z,21.53
2018-09-05T19:26:05.636Z,21.36
2018-09-05T19:28:33.795Z,21.37
2018-09-05T19:31:01.892Z,21.35
2018-09-05T19:33:29.974Z,21.22
2018-09-05T19:35:58.087Z,21.09
2018-09-05T19:38:26.191Z,21.03
2018-09-05T19:40:54.290Z,21.02
2018-09-05T19:43:22.356Z,21.02
2018-09-05T19:45:50.456Z,20.96
2018-09-05T19:48:18.547Z,20.88
2018-09-05T19:50:46.651Z,20.86
2018-09-05T19:53:14.727Z,20.85
2018-09-05T19:55:42.996Z,20.72
2018-09-05T19:58:11.091Z,20.62
2018-09-05T20:00:39.201Z,20.54
2018-09-05T20:03:07.291Z,20.53
2018-09-05T20:05:35.392Z,20.54
2018-09-05T20:08:03.505Z,20.60
2018-09-05T20:10:31.613Z,20.49
2018-09-05T20:12:59.747Z,20.51
2018-09-05T20:15:27.861Z,20.54
2018-09-05T20:17:55.965Z,20.38
2018-09-05T20:20:24.130Z,20.36
2018-09-05T20:22:53.238Z,20.32
2018-09-05T20:25:21.413Z,20.28
2018-09-05T20:27:50.279Z,20.18
2018-09-05T20:30:18.366Z,20.10
2018-09-05T20:32:46.512Z,20.13
2018-09-05T20:35:14.618Z,20.12
2018-09-05T20:37:42.755Z,20.02
2018-09-05T20:40:10.876Z,19.89
2018-09-05T20:42:38.962Z,19.86
2018-09-05T20:45:07.117Z,19.79
2018-09-05T20:47:35.657Z,19.73
2018-09-05T20:50:03.982Z,19.66
2018-09-05T20:52:32.091Z,19.62
2018-09-05T20:55:00.209Z,19.68
2018-09-05T20:57:28.278Z,19.59
2018-09-05T20:59:56.471Z,19.57
2018-09-05T21:02:24.598Z,19.52
2018-09-05T21:04:52.676Z,19.45
2018-09-05T21:07:20.776Z,19.38
2018-09-05T21:09:48.884Z,19.39
2018-09-05T21:12:17.004Z,19.40
2018-09-05T21:14:45.131Z,19.38
2018-09-05T21:17:13.230Z,19.34
2018-09-05T21:19:41.324Z,19.35
2018-09-05T21:22:09.405Z,19.33
2018-09-05T21:24:37.508Z,19.36
2018-09-05T21:27:05.833Z,19.34
2018-09-05T21:29:33.951Z,19.19
2018-09-05T21:32:02.194Z,19.19
2018-09-05T21:34:30.274Z,19.13
2018-09-05T21:36:58.470Z,19.13
2018-09-05T21:39:26.568Z,19.09
2018-09-05T21:41:55.035Z,19.02
2018-09-05T21:44:23.108Z,18.90
2018-09-05T21:46:51.187Z,18.84
2018-09-05T21:49:19.276Z,18.87
2018-09-05T21:51:47.355Z,18.76
2018-09-05T21:54:15.463Z,18.65
2018-09-05T21:56:43.551Z,18.59
2018-09-05T22:02:39.899Z,18.66
2018-09-05T22:05:07.997Z,18.68
2018-09-05T22:07:36.101Z,18.69
2018-09-05T22:10:05.680Z,18.67
2018-09-05T22:12:33.760Z,18.67
2018-09-05T22:15:01.869Z,18.69
2018-09-05T22:17:29.979Z,18.77
2018-09-05T22:19:58.119Z,18.86
2018-09-05T22:22:26.214Z,18.93
2018-09-05T22:24:54.326Z,18.91
2018-09-05T22:27:22.411Z,18.91
2018-09-05T22:29:50.500Z,18.92
2018-09-05T22:32:18.644Z,18.87
2018-09-05T22:34:46.702Z,18.89
2018-09-05T22:37:14.894Z,18.87
2018-09-05T22:39:42.974Z,18.84
2018-09-05T22:42:13.091Z,18.75
2018-09-05T22:44:53.235Z,18.71
2018-09-05T22:47:32.774Z,18.62
2018-09-05T22:50:18.230Z,18.62
2018-09-05T22:53:08.890Z,18.59
2018-09-05T22:55:54.001Z,18.52
2018-09-05T23:00:09.228Z,18.29
2018-09-05T23:05:52.526Z,18.09
2018-09-05T23:08:37.444Z,18.09
2018-09-05T23:11:19.825Z,18.13
2018-09-05T23:14:01.750Z,18.16
2018-09-05T23:16:41.502Z,18.16
2018-09-05T23:19:34.845Z,18.20
2018-09-05T23:22:02.972Z,18.08
2018-09-05T23:24:31.067Z,17.91
2018-09-05T23:26:59.255Z,17.78
2018-09-05T23:29:27.984Z,17.73
2018-09-05T23:31:56.101Z,17.71
2018-09-05T23:34:24.202Z,17.66
2018-09-05T23:36:52.336Z,17.64
2018-09-05T23:39:20.482Z,17.54
2018-09-05T23:41:48.572Z,17.50
2018-09-05T23:44:16.684Z,17.32
2018-09-05T23:46:44.776Z,17.20
2018-09-05T23:49:12.912Z,17.11
2018-09-05T23:51:41.011Z,17.09
2018-09-05T23:54:09.316Z,17.07
2018-09-05T23:56:37.419Z,16.98
2018-09-05T23:59:06.460Z,17.00
